createdAt,value
2023-01-10T00:01:48.657Z,100028.66
2023-01-10T00:04:17.936Z,100039.06
2023-01-10T00:06:45.851Z,100036.19
2023-01-10T00:09:14.043Z,100036.94
2023-01-10T00:12:00.558Z,100040.03
2023-01-10T00:14:29.204Z,100042.28
2023-01-10T00:16:57.225Z,100048.28
2023-01-10T00:19:26.583Z,100059.56
2023-01-10T00:21:57.314Z,100072.41
2023-01-10T00:24:25.088Z,100070.53
2023-01-10T00:26:52.967Z,100081.84
2023-01-10T00:29:24.829Z,100086.00
2023-01-10T00:31:52.676Z,100090.38
2023-01-10T00:34:20.794Z,100091.88
2023-01-10T00:36:50.049Z,100100.19
2023-01-10T00:39:20.505Z,100099.50
2023-01-10T00:42:06.878Z,100100.31
2023-01-10T00:44:34.742Z,100112.28
2023-01-10T00:47:02.481Z,100125.56
2023-01-10T00:49:30.327Z,100114.13
2023-01-10T00:51:59.972Z,100115.00
2023-01-10T00:54:27.876Z,100127.16
2023-01-10T00:56:55.742Z,100125.53
2023-01-10T00:59:24.854Z,100133.09
2023-01-10T01:01:53.021Z,100140.16
2023-01-10T01:04:21.393Z,100142.50
2023-01-10T01:06:50.693Z,100147.28
2023-01-10T01:09:19.881Z,100167.97
2023-01-10T01:11:47.584Z,100168.09
2023-01-10T01:14:15.411Z,100173.50
2023-01-10T01:16:43.196Z,100181.91
2023-01-10T01:19:12.425Z,100185.91
2023-01-10T01:21:40.421Z,100194.44
2023-01-10T01:24:10.008Z,100202.03
2023-01-10T01:26:39.976Z,100211.03
2023-01-10T01:29:07.947Z,100223.06
2023-01-10T01:31:35.731Z,100219.97
2023-01-10T01:34:03.949Z,100224.81
2023-01-10T01:36:31.854Z,100234.13
2023-01-10T01:38:59.696Z,100237.44
2023-01-10T01:41:45.965Z,100242.56
2023-01-10T01:44:18.335Z,100249.91
2023-01-10T01:46:55.075Z,100247.41
2023-01-10T01:49:25.017Z,100250.81
2023-01-10T01:52:01.442Z,100250.09
2023-01-10T01:54:31.744Z,100263.56
2023-01-10T01:57:12.034Z,100264.47
2023-01-10T01:59:44.639Z,100259.75
2023-01-10T02:02:19.783Z,100259.00
2023-01-10T02:04:55.128Z,100258.88
2023-01-10T02:07:27.102Z,100251.47
2023-01-10T02:10:01.207Z,100262.75
2023-01-10T02:12:32.079Z,100252.44
2023-01-10T02:15:03.236Z,100261.34
2023-01-10T02:17:31.113Z,100259.66
2023-01-10T02:20:04.700Z,100277.72
2023-01-10T02:23:08.973Z,100278.06
2023-01-10T02:26:27.326Z,100266.72
2023-01-10T02:29:35.922Z,100280.75
2023-01-10T02:32:45.723Z,100283.78
2023-01-10T02:35:47.494Z,100279.13
2023-01-10T02:38:34.134Z,100284.38
2023-01-10T02:41:15.583Z,100289.66
2023-01-10T02:43:52.719Z,100275.94
2023-01-10T02:46:27.504Z,100278.50
2023-01-10T02:48:57.112Z,100288.81
2023-01-10T02:51:27.803Z,100285.91
2023-01-10T02:54:03.433Z,100287.06
2023-01-10T02:57:02.484Z,100287.81
2023-01-10T02:59:52.651Z,100290.06
2023-01-10T03:02:44.386Z,100296.84
2023-01-10T03:05:28.782Z,100293.22
2023-01-10T03:08:10.770Z,100301.72
2023-01-10T03:10:49.181Z,100299.47
2023-01-10T03:13:25.624Z,100301.13
2023-01-10T03:15:57.260Z,100309.06
2023-01-10T03:18:35.686Z,100314.00
2023-01-10T03:21:10.250Z,100322.56
2023-01-10T03:23:40.662Z,100326.81
2023-01-10T03:26:11.817Z,100330.19
2023-01-10T03:28:49.345Z,100337.25
2023-01-10T03:31:23.067Z,100357.47
2023-01-10T03:33:51.252Z,100357.41
2023-01-10T03:36:34.607Z,100362.66
2023-01-10T03:39:16.224Z,100362.53
2023-01-10T03:41:54.634Z,100365.81
2023-01-10T03:44:45.062Z,100360.28
2023-01-10T03:47:22.488Z,100368.91
2023-01-10T03:49:57.741Z,100379.31
2023-01-10T03:52:28.771Z,100384.47
2023-01-10T03:54:58.976Z,100384.47
2023-01-10T03:57:27.288Z,100381.63
2023-01-10T03:59:59.808Z,100380.69
2023-01-10T04:02:30.697Z,100389.59
2023-01-10T04:04:59.355Z,100388.53
2023-01-10T04:07:28.774Z,100389.59
2023-01-10T04:09:56.712Z,100401.56
2023-01-10T04:12:24.768Z,100404.09
2023-01-10T04:14:53.015Z,100408.81
2023-01-10T04:17:20.928Z,100408.41
2023-01-10T04:19:48.894Z,100419.22
2023-01-10T04:22:16.832Z,100414.09
2023-01-10T04:24:48.456Z,100419.09
2023-01-10T04:27:16.846Z,100422.50
2023-01-10T04:29:44.798Z,100415.47
2023-01-10T04:32:13.224Z,100434.13
2023-01-10T04:34:41.233Z,100435.59
2023-01-10T04:37:09.278Z,100445.16
2023-01-10T04:39:37.236Z,100432.50
2023-01-10T04:42:06.590Z,100435.47
2023-01-10T04:44:34.485Z,100438.75
2023-01-10T04:47:02.731Z,100442.66
2023-01-10T04:49:31.146Z,100432.50
2023-01-10T04:51:59.139Z,100435.47
2023-01-10T04:54:27.156Z,100436.16
2023-01-10T04:56:55.030Z,100437.31
2023-01-10T04:59:24.487Z,100449.56
2023-01-10T05:01:52.548Z,100455.09
2023-01-10T05:04:21.052Z,100451.16
2023-01-10T05:06:49.433Z,100456.31
2023-01-10T05:09:17.703Z,100460.22
2023-01-10T05:11:45.830Z,100458.63
2023-01-10T05:14:13.919Z,100459.00
2023-01-10T05:16:43.275Z,100463.97
2023-01-10T05:19:12.108Z,100457.66
2023-01-10T05:21:40.053Z,100472.81
2023-01-10T05:24:09.688Z,100477.72
2023-01-10T05:26:37.862Z,100489.34
2023-01-10T05:29:05.746Z,100492.75
2023-01-10T05:31:33.632Z,100501.53
2023-01-10T05:34:03.195Z,100499.50
2023-01-10T05:36:31.177Z,100503.81
2023-01-10T05:38:59.107Z,100512.50
2023-01-10T05:41:27.181Z,100509.78
2023-01-10T05:43:55.090Z,100522.66
2023-01-10T05:46:23.000Z,100520.59
2023-01-10T05:48:52.538Z,100512.47
2023-01-10T05:51:21.921Z,100519.41
2023-01-10T05:53:50.438Z,100526.41
2023-01-10T05:56:19.150Z,100524.19
2023-01-10T05:58:49.383Z,100533.09
2023-01-10T06:01:19.623Z,100544.28
2023-01-10T06:03:48.405Z,100548.56
2023-01-10T06:06:16.366Z,100549.03
2023-01-10T06:08:45.633Z,100551.31
2023-01-10T06:11:13.576Z,100551.59
2023-01-10T06:13:41.580Z,100548.94
2023-01-10T06:16:09.623Z,100556.31
2023-01-10T06:18:37.597Z,100568.78
2023-01-10T06:21:05.939Z,100564.75
2023-01-10T06:23:33.927Z,100565.75
2023-01-10T06:26:03.209Z,100578.56
2023-01-10T06:28:31.178Z,100568.41
2023-01-10T06:30:59.144Z,100569.78
2023-01-10T06:33:27.143Z,100580.84
2023-01-10T06:35:55.441Z,100574.31
2023-01-10T06:38:23.364Z,100565.66
2023-01-10T06:40:54.262Z,100575.44
2023-01-10T06:43:25.774Z,100578.56
2023-01-10T06:45:53.951Z,100584.59
2023-01-10T06:48:21.967Z,100586.13
2023-01-10T06:50:50.354Z,100596.13
2023-01-10T06:53:18.295Z,100603.00
2023-01-10T06:55:46.147Z,100609.50
2023-01-10T06:58:18.447Z,100601.88
2023-01-10T07:00:47.752Z,100598.34
2023-01-10T07:03:15.994Z,100597.78
2023-01-10T07:05:44.317Z,100609.41
2023-01-10T07:08:12.201Z,100615.91
2023-01-10T07:10:41.610Z,100614.28
2023-01-10T07:16:03.650Z,100618.03
2023-01-10T07:18:32.273Z,100615.50
2023-01-10T07:21:00.229Z,100608.88
2023-01-10T07:23:30.597Z,100634.75
2023-01-10T07:26:02.021Z,100638.94
2023-01-10T07:28:30.333Z,100643.56
2023-01-10T07:31:00.289Z,100641.13
2023-01-10T07:33:31.153Z,100644.34
2023-01-10T07:36:01.252Z,100659.44
2023-01-10T07:38:29.799Z,100661.56
2023-01-10T07:40:57.835Z,100667.44
2023-01-10T07:43:25.849Z,100674.88
2023-01-10T07:45:53.821Z,100677.88
2023-01-10T07:48:22.720Z,100673.41
2023-01-10T07:50:55.910Z,100672.78
2023-01-10T07:53:24.472Z,100680.03
2023-01-10T07:55:52.431Z,100681.81
2023-01-10T07:58:20.889Z,100690.63
2023-01-10T08:00:50.792Z,100696.03
2023-01-10T08:03:19.189Z,100693.06
2023-01-10T08:05:47.322Z,100703.22
2023-01-10T08:08:17.492Z,100690.63
2023-01-10T08:10:45.889Z,100699.84
2023-01-10T08:13:18.790Z,100692.25
2023-01-10T08:15:50.236Z,100689.53
2023-01-10T08:18:19.790Z,100696.56
2023-01-10T08:20:49.957Z,100701.84
2023-01-10T08:23:20.462Z,100705.66
2023-01-10T08:25:49.369Z,100706.06
2023-01-10T08:28:17.633Z,100700.78
2023-01-10T08:30:45.780Z,100693.59
2023-01-10T08:33:13.787Z,100702.28
2023-01-10T08:35:43.966Z,100708.19
2023-01-10T08:38:12.298Z,100703.25
2023-01-10T08:40:41.775Z,100704.97
2023-01-10T08:43:12.496Z,100708.06
2023-01-10T08:45:41.003Z,100709.84
2023-01-10T08:48:10.403Z,100705.75
2023-01-10T08:50:38.357Z,100715.13
2023-01-10T08:53:06.464Z,100723.34
2023-01-10T08:55:37.331Z,100723.50
2023-01-10T08:58:06.666Z,100724.81
2023-01-10T09:00:34.705Z,100731.38
2023-01-10T09:03:02.781Z,100732.91
2023-01-10T09:05:30.809Z,100733.72
2023-01-10T09:08:00.561Z,100723.91
2023-01-10T09:10:29.466Z,100727.78
2023-01-10T09:13:01.475Z,100730.63
2023-01-10T09:15:34.314Z,100740.47
2023-01-10T09:18:05.429Z,100740.66
2023-01-10T09:20:36.614Z,100737.25
2023-01-10T09:23:07.028Z,100737.91
2023-01-10T09:25:35.361Z,100743.94
2023-01-10T09:28:05.435Z,100745.88
2023-01-10T09:30:35.193Z,100734.91
2023-01-10T09:33:04.431Z,100733.44
2023-01-10T09:35:35.956Z,100740.97
2023-01-10T09:38:07.169Z,100743.69
2023-01-10T09:41:06.566Z,100753.31
2023-01-10T09:43:54.680Z,100747.13
2023-01-10T09:46:39.670Z,100748.41
2023-01-10T09:49:25.403Z,100755.69
2023-01-10T09:51:59.254Z,100761.88
2023-01-10T09:54:31.998Z,100767.69
2023-01-10T09:57:02.027Z,100764.16
2023-01-10T09:59:37.929Z,100775.47
2023-01-10T10:02:26.295Z,100764.81
2023-01-10T10:05:10.031Z,100771.97
2023-01-10T10:07:38.225Z,100774.59
2023-01-10T10:10:12.005Z,100771.84
2023-01-10T10:12:53.081Z,100770.06
2023-01-10T10:15:32.297Z,100769.63
2023-01-10T10:18:26.031Z,100765.41
2023-01-10T10:21:03.860Z,100764.88
2023-01-10T10:23:59.841Z,100752.16
2023-01-10T10:26:34.628Z,100747.72
2023-01-10T10:29:44.659Z,100742.78
2023-01-10T10:32:57.271Z,100749.38
2023-01-10T10:35:34.810Z,100740.91
2023-01-10T10:38:11.123Z,100742.44
2023-01-10T10:40:44.647Z,100746.13
2023-01-10T10:43:21.788Z,100750.19
2023-01-10T10:45:57.143Z,100734.25
2023-01-10T10:48:29.726Z,100736.03
2023-01-10T10:51:08.715Z,100733.78
2023-01-10T10:53:37.058Z,100734.50
2023-01-10T10:56:17.873Z,100732.66
2023-01-10T10:58:51.818Z,100730.88
2023-01-10T11:01:20.208Z,100733.94
2023-01-10T11:03:54.448Z,100726.00
2023-01-10T11:06:26.855Z,100721.19
2023-01-10T11:09:01.776Z,100717.06
2023-01-10T11:11:35.523Z,100718.09
2023-01-10T11:14:06.844Z,100714.41
2023-01-10T11:16:39.675Z,100718.22
2023-01-10T11:19:21.988Z,100709.63
2023-01-10T11:21:56.614Z,100708.63
2023-01-10T11:24:30.603Z,100707.53
2023-01-10T11:27:02.997Z,100710.44
2023-01-10T11:29:40.511Z,100707.53
2023-01-10T11:32:15.110Z,100712.50
2023-01-10T11:34:53.792Z,100711.78
2023-01-10T11:37:29.039Z,100706.06
2023-01-10T11:40:23.870Z,100709.69
2023-01-10T11:42:54.925Z,100705.13
2023-01-10T11:45:31.979Z,100717.00
2023-01-10T11:48:09.387Z,100710.75
2023-01-10T11:50:44.448Z,100703.69
2023-01-10T11:53:37.852Z,100701.19
2023-01-10T11:56:10.964Z,100700.03
2023-01-10T11:58:41.355Z,100698.22
2023-01-10T12:01:29.660Z,100691.16
2023-01-10T12:03:58.471Z,100689.31
2023-01-10T12:06:28.447Z,100680.97
2023-01-10T12:08:58.218Z,100691.81
2023-01-10T12:11:31.110Z,100698.97
2023-01-10T12:14:01.922Z,100692.38
2023-01-10T12:16:33.593Z,100693.72
2023-01-10T12:19:05.439Z,100688.22
2023-01-10T12:21:39.466Z,100694.47
2023-01-10T12:24:18.145Z,100693.34
2023-01-10T12:26:47.958Z,100697.53
2023-01-10T12:29:22.398Z,100698.97
2023-01-10T12:31:54.779Z,100699.63
2023-01-10T12:34:37.035Z,100698.09
2023-01-10T12:37:14.901Z,100696.84
2023-01-10T12:39:52.839Z,100702.50
2023-01-10T12:43:00.979Z,100692.72
2023-01-10T12:45:37.924Z,100682.50
2023-01-10T12:48:19.289Z,100685.66
2023-01-10T12:50:55.274Z,100670.81
2023-01-10T12:53:33.964Z,100658.09
2023-01-10T12:56:09.546Z,100659.19
2023-01-10T12:58:44.221Z,100659.16
2023-01-10T13:01:17.428Z,100649.31
2023-01-10T13:03:52.483Z,100652.44
2023-01-10T13:06:27.787Z,100645.78
2023-01-10T13:08:58.204Z,100644.78
2023-01-10T13:11:40.379Z,100650.03
2023-01-10T13:14:18.118Z,100646.41
2023-01-10T13:16:54.572Z,100645.09
2023-01-10T13:19:26.440Z,100642.78
2023-01-10T13:22:20.910Z,100634.09
2023-01-10T13:24:58.266Z,100630.38
2023-01-10T13:27:32.542Z,100630.03
2023-01-10T13:30:02.570Z,100637.63
2023-01-10T13:32:36.393Z,100631.69
2023-01-10T13:35:14.949Z,100625.53
2023-01-10T13:37:51.681Z,100621.91
2023-01-10T13:40:27.204Z,100621.84
2023-01-10T13:43:39.886Z,100614.66
2023-01-10T13:46:43.726Z,100612.34
2023-01-10T13:49:43.128Z,100610.03
2023-01-10T13:52:30.942Z,100601.56
2023-01-10T13:55:03.735Z,100592.63
2023-01-10T13:57:54.069Z,100591.34
2023-01-10T14:01:00.025Z,100585.75
2023-01-10T14:03:50.762Z,100580.03
2023-01-10T14:06:41.332Z,100574.84
2023-01-10T14:09:44.689Z,100577.34
2023-01-10T14:12:35.679Z,100569.28
2023-01-10T14:15:20.183Z,100566.72
2023-01-10T14:18:01.125Z,100568.25
2023-01-10T14:20:33.531Z,100574.03
2023-01-10T14:23:08.614Z,100561.47
2023-01-10T14:25:39.354Z,100556.28
2023-01-10T14:28:23.525Z,100555.25
2023-01-10T14:31:03.473Z,100554.47
2023-01-10T14:33:34.084Z,100540.69
2023-01-10T14:36:10.043Z,100542.13
2023-01-10T14:38:39.881Z,100535.63
2023-01-10T14:41:17.477Z,100531.59
2023-01-10T14:43:54.278Z,100541.91
2023-01-10T14:46:33.892Z,100524.53
2023-01-10T14:49:24.086Z,100522.91
2023-01-10T14:52:01.079Z,100524.03
2023-01-10T14:54:29.535Z,100515.25
2023-01-10T14:56:57.784Z,100509.91
2023-01-10T14:59:28.619Z,100518.50
2023-01-10T15:02:00.293Z,100502.44
2023-01-10T15:04:33.518Z,100503.03
2023-01-10T15:07:11.578Z,100499.69
2023-01-10T15:09:47.340Z,100498.66
2023-01-10T15:12:16.944Z,100498.63
2023-01-10T15:14:47.270Z,100498.63
2023-01-10T15:17:22.952Z,100493.16
2023-01-10T15:19:53.101Z,100494.16
2023-01-10T15:22:31.059Z,100480.56
2023-01-10T15:25:02.203Z,100479.50
2023-01-10T15:27:31.971Z,100475.88
2023-01-10T15:30:00.810Z,100474.03
2023-01-10T15:32:34.683Z,100475.78
2023-01-10T15:35:06.338Z,100471.66
2023-01-10T15:37:40.803Z,100469.75
2023-01-10T15:40:22.380Z,100470.81
2023-01-10T15:42:50.482Z,100462.03
2023-01-10T15:45:30.773Z,100452.50
2023-01-10T15:48:03.777Z,100440.59
2023-01-10T15:50:38.776Z,100448.50
2023-01-10T15:53:13.463Z,100442.28
2023-01-10T15:55:46.589Z,100435.13
2023-01-10T15:58:29.258Z,100430.41
2023-01-10T16:00:59.877Z,100426.69
2023-01-10T16:03:36.802Z,100425.09
2023-01-10T16:06:09.956Z,100422.41
2023-01-10T16:08:39.110Z,100414.34
2023-01-10T16:11:37.689Z,100416.19
2023-01-10T16:14:05.808Z,100415.88
2023-01-10T16:16:34.289Z,100418.38
2023-01-10T16:19:03.060Z,100414.00
2023-01-10T16:21:38.626Z,100410.19
2023-01-10T16:24:13.520Z,100401.56
2023-01-10T16:26:41.954Z,100408.75
2023-01-10T16:29:10.667Z,100395.03
2023-01-10T16:31:39.007Z,100391.41
2023-01-10T16:34:07.435Z,100383.47
2023-01-10T16:36:37.130Z,100370.25
2023-01-10T16:39:14.941Z,100370.16
2023-01-10T16:42:02.823Z,100362.25
2023-01-10T16:44:31.954Z,100360.31
2023-01-10T16:47:00.977Z,100358.19
2023-01-10T16:49:28.951Z,100354.75
2023-01-10T16:51:58.406Z,100359.91
2023-01-10T16:54:26.600Z,100354.56
2023-01-10T16:56:54.625Z,100351.16
2023-01-10T16:59:22.928Z,100353.63
2023-01-10T17:01:55.917Z,100350.25
2023-01-10T17:04:28.097Z,100351.25
2023-01-10T17:06:56.748Z,100346.06
2023-01-10T17:09:28.968Z,100342.50
2023-01-10T17:12:04.478Z,100336.81
2023-01-10T17:14:36.008Z,100327.16
2023-01-10T17:17:04.929Z,100324.03
2023-01-10T17:19:32.990Z,100327.16
2023-01-10T17:22:00.957Z,100307.97
2023-01-10T17:24:30.282Z,100305.78
2023-01-10T17:26:58.209Z,100306.34
2023-01-10T17:29:26.175Z,100298.19
2023-01-10T17:31:54.129Z,100304.81
2023-01-10T17:34:22.152Z,100294.19
2023-01-10T17:36:50.030Z,100280.75
2023-01-10T17:39:18.281Z,100268.28
2023-01-10T17:41:47.643Z,100270.81
2023-01-10T17:44:15.571Z,100266.34
2023-01-10T17:46:43.584Z,100252.16
2023-01-10T17:49:13.361Z,100257.97
2023-01-10T17:51:41.535Z,100254.56
2023-01-10T17:54:09.516Z,100238.53
2023-01-10T17:56:37.428Z,100235.91
2023-01-10T17:59:06.934Z,100233.25
2023-01-10T18:01:34.959Z,100228.59
2023-01-10T18:04:03.086Z,100231.19
2023-01-10T18:06:31.059Z,100228.00
2023-01-10T18:09:00.709Z,100216.63
2023-01-10T18:11:30.688Z,100225.31
2023-01-10T18:13:58.682Z,100212.34
2023-01-10T18:16:28.042Z,100214.91
2023-01-10T18:18:56.411Z,100208.72
2023-01-10T18:21:24.531Z,100207.19
2023-01-10T18:23:56.953Z,100195.00
2023-01-10T18:26:25.037Z,100209.03
2023-01-10T18:28:54.167Z,100208.25
2023-01-10T18:31:22.455Z,100190.00
2023-01-10T18:33:53.621Z,100191.09
2023-01-10T18:36:24.373Z,100178.81
2023-01-10T18:38:52.552Z,100165.06
2023-01-10T18:41:21.267Z,100159.47
2023-01-10T18:43:49.174Z,100153.44
2023-01-10T18:46:21.220Z,100156.56
2023-01-10T18:48:53.185Z,100154.19
2023-01-10T18:51:22.844Z,100145.31
2023-01-10T18:53:52.891Z,100152.09
2023-01-10T18:56:21.103Z,100159.69
2023-01-10T18:58:49.014Z,100144.97
2023-01-10T19:01:19.420Z,100161.31
2023-01-10T19:03:47.865Z,100163.22
2023-01-10T19:06:19.638Z,100160.00
2023-01-10T19:08:47.839Z,100155.63
2023-01-10T19:11:16.978Z,100162.34
2023-01-10T19:13:46.920Z,100163.63
2023-01-10T19:16:18.816Z,100175.69
2023-01-10T19:18:51.037Z,100158.72
2023-01-10T19:21:22.092Z,100148.28
2023-01-10T19:23:52.585Z,100148.06
2023-01-10T19:26:20.925Z,100141.19
2023-01-10T19:28:49.241Z,100127.75
2023-01-10T19:31:19.170Z,100119.84
2023-01-10T19:33:48.188Z,100118.13
2023-01-10T19:36:17.407Z,100122.69
2023-01-10T19:38:46.917Z,100112.59
2023-01-10T19:41:15.069Z,100101.19
2023-01-10T19:43:43.044Z,100101.94
2023-01-10T19:46:12.969Z,100090.66
2023-01-10T19:48:41.142Z,100097.44
2023-01-10T19:51:12.414Z,100086.38
2023-01-10T19:53:44.741Z,100078.72
2023-01-10T19:56:19.753Z,100083.53
2023-01-10T19:58:49.211Z,100064.03
2023-01-10T20:01:20.640Z,100063.03
2023-01-10T20:03:49.523Z,100075.41
2023-01-10T20:06:21.888Z,100071.78
2023-01-10T20:08:51.053Z,100068.59
2023-01-10T20:11:21.861Z,100063.44
2023-01-10T20:13:51.136Z,100065.28
2023-01-10T20:16:21.992Z,100072.59
2023-01-10T20:18:51.371Z,100053.53
2023-01-10T20:21:20.088Z,100066.00
2023-01-10T20:23:48.657Z,100047.81
2023-01-10T20:26:21.478Z,100060.94
2023-01-10T20:28:50.560Z,100049.69
2023-01-10T20:31:21.255Z,100057.34
2023-01-10T20:33:50.211Z,100038.28
2023-01-10T20:36:21.728Z,100052.28
2023-01-10T20:38:50.555Z,100054.38
2023-01-10T20:41:23.439Z,100050.94
2023-01-10T20:43:53.244Z,100023.91
2023-01-10T20:46:24.513Z,100040.41
2023-01-10T20:48:54.260Z,100026.91
2023-01-10T20:51:25.930Z,100027.00
2023-01-10T20:53:54.113Z,100027.00
2023-01-10T20:56:26.733Z,100034.72
2023-01-10T20:58:56.240Z,100023.56
2023-01-10T21:01:34.005Z,100029.41
2023-01-10T21:04:04.132Z,100023.22
2023-01-10T21:06:33.633Z,100028.28
2023-01-10T21:09:03.041Z,100023.41
2023-01-10T21:11:38.790Z,100027.88
2023-01-10T21:14:13.092Z,100026.56
2023-01-10T21:16:41.059Z,100014.75
2023-01-10T21:19:13.423Z,100011.25
2023-01-10T21:21:42.401Z,99987.16
2023-01-10T21:24:10.784Z,100013.19
2023-01-10T21:26:40.026Z,99996.16
2023-01-10T21:29:08.271Z,99993.22
2023-01-10T21:31:36.287Z,99989.88
2023-01-10T21:34:04.259Z,99990.66
2023-01-10T21:36:32.210Z,99992.19
2023-01-10T21:39:00.162Z,99991.44
2023-01-10T21:41:46.928Z,99984.59
2023-01-10T21:44:16.254Z,99973.41
2023-01-10T21:46:46.767Z,99963.41
2023-01-10T21:49:15.202Z,99968.56
2023-01-10T21:51:44.352Z,99975.28
2023-01-10T21:54:12.545Z,99975.44
2023-01-10T21:56:40.485Z,99977.41
2023-01-10T21:59:08.498Z,99972.13
2023-01-10T22:01:37.881Z,99976.00
2023-01-10T22:04:05.848Z,99960.56
2023-01-10T22:06:34.013Z,99958.06
2023-01-10T22:09:01.982Z,99941.88
2023-01-10T22:11:29.881Z,99945.25
2023-01-10T22:13:57.886Z,99938.44
2023-01-10T22:16:26.294Z,99940.16
2023-01-10T22:18:55.624Z,99921.34
2023-01-10T22:21:23.642Z,99933.56
2023-01-10T22:23:51.608Z,99919.81
2023-01-10T22:26:19.788Z,99919.38
2023-01-10T22:28:47.892Z,99921.00
2023-01-10T22:31:15.960Z,99923.75
2023-01-10T22:33:43.990Z,99909.16
2023-01-10T22:36:17.396Z,99914.25
2023-01-10T22:38:46.675Z,99915.09
2023-01-10T22:41:17.781Z,99909.00
2023-01-10T22:43:46.610Z,99910.03
2023-01-10T22:46:15.719Z,99905.63
2023-01-10T22:48:44.253Z,99901.34
2023-01-10T22:51:12.350Z,99902.44
2023-01-10T22:53:42.382Z,99889.47
2023-01-10T22:56:11.559Z,99904.94
2023-01-10T22:58:42.192Z,99898.03
2023-01-10T23:01:10.265Z,99905.16
2023-01-10T23:03:38.250Z,99894.84
2023-01-10T23:06:06.480Z,99902.59
2023-01-10T23:08:35.628Z,99890.69
2023-01-10T23:11:05.405Z,99886.53
2023-01-10T23:13:33.979Z,99881.41
2023-01-10T23:16:04.762Z,99874.63
2023-01-10T23:18:34.052Z,99873.97
2023-01-10T23:21:02.542Z,99871.38
2023-01-10T23:23:30.811Z,99876.53
2023-01-10T23:26:01.980Z,99876.59
2023-01-10T23:28:34.101Z,99861.13
2023-01-10T23:31:02.718Z,99859.66
2023-01-10T23:33:31.467Z,99869.22
2023-01-10T23:36:00.365Z,99864.03
2023-01-10T23:38:28.839Z,99854.84
2023-01-10T23:40:57.952Z,99868.66
2023-01-10T23:43:25.929Z,99862.91
2023-01-10T23:45:55.350Z,99853.91
2023-01-10T23:48:23.327Z,99848.22
2023-01-10T23:50:51.833Z,99845.78
2023-01-10T23:53:20.406Z,99845.69
2023-01-10T23:55:48.480Z,99847.34
2023-01-10T23:58:17.028Z,99837.81
